EZY2522 EHAM-EGGW
Flight info
| Callsign | EZY2522 |
|---|---|
| Flight time | 0h 39m |
| Altitude | 24000 |
| Route | IDRID M40 RINIS |
| Aircraft | A320/M-SDE3FGHIRWY/LB1 |
Departure
| Time | 2026-04-30 19:42 |
|---|---|
| Airport | Amsterdam Airport Schiphol (EHAM) |
Arrival
| Time | 2026-04-30 20:21 |
|---|---|
| Airport | London Luton Airport (EGGW) |
| Time | Latitude | Longitude | Altitude | Speed | Heading |
|---|---|---|---|---|---|
| 2026-04-30 19:04 | 52.31067 | 4.75572 | -1 ft | 0 kts | 147° |
| 2026-04-30 19:24 | 52.31067 | 4.75571 | -1 ft | 0 kts | 147° |
| 2026-04-30 19:30 | 52.31071 | 4.75567 | -1 ft | 4 kts | 148° |
| 2026-04-30 19:30 | 52.31110 | 4.75522 | -1 ft | 3 kts | 68° |
| 2026-04-30 19:31 | 52.31092 | 4.75471 | -1 ft | 0 kts | 58° |
| 2026-04-30 19:34 | 52.31114 | 4.75469 | -1 ft | 8 kts | 358° |
| 2026-04-30 19:34 | 52.31276 | 4.75455 | -1 ft | 20 kts | 357° |
| 2026-04-30 19:35 | 52.31420 | 4.75443 | -1 ft | 22 kts | 357° |
| 2026-04-30 19:35 | 52.31508 | 4.75360 | -1 ft | 15 kts | 278° |
| 2026-04-30 19:35 | 52.31502 | 4.75200 | -1 ft | 14 kts | 267° |
| 2026-04-30 19:35 | 52.31497 | 4.75045 | -1 ft | 13 kts | 267° |
| 2026-04-30 19:36 | 52.31493 | 4.74904 | -1 ft | 7 kts | 266° |
| 2026-04-30 19:36 | 52.31492 | 4.74888 | -1 ft | 0 kts | 266° |
| 2026-04-30 19:36 | 52.31486 | 4.74727 | -1 ft | 8 kts | 269° |
| 2026-04-30 19:37 | 52.31494 | 4.74699 | -1 ft | 0 kts | 314° |
| 2026-04-30 19:37 | 52.31519 | 4.74669 | -1 ft | 12 kts | 334° |
| 2026-04-30 19:38 | 52.31567 | 4.74661 | -1 ft | 0 kts | 0° |
| 2026-04-30 19:38 | 52.31571 | 4.74661 | -1 ft | 5 kts | 0° |
| 2026-04-30 19:38 | 52.31655 | 4.74701 | 0 ft | 15 kts | 49° |
| 2026-04-30 19:39 | 52.31668 | 4.74820 | -1 ft | 0 kts | 87° |
| 2026-04-30 19:41 | 52.31670 | 4.74869 | -2 ft | 20 kts | 86° |
| 2026-04-30 19:41 | 52.31695 | 4.75604 | -2 ft | 104 kts | 86° |
| 2026-04-30 19:41 | 52.31749 | 4.77085 | 228 ft | 143 kts | 87° |
| 2026-04-30 19:42 | 52.31863 | 4.78680 | 1100 ft | 144 kts | 74° |
| 2026-04-30 19:42 | 52.32512 | 4.80054 | 1768 ft | 171 kts | 46° |
| 2026-04-30 19:42 | 52.33748 | 4.80742 | 2285 ft | 211 kts | 7° |
| 2026-04-30 19:42 | 52.35307 | 4.80276 | 2867 ft | 242 kts | 349° |
| 2026-04-30 19:43 | 52.36977 | 4.79571 | 3745 ft | 251 kts | 349° |
| 2026-04-30 19:43 | 52.38695 | 4.78925 | 4744 ft | 257 kts | 351° |
| 2026-04-30 19:43 | 52.40371 | 4.77872 | 5775 ft | 264 kts | 325° |
| 2026-04-30 19:44 | 52.43047 | 4.73259 | 7369 ft | 295 kts | 308° |
| 2026-04-30 19:44 | 52.44339 | 4.70610 | 8402 ft | 299 kts | 308° |
| 2026-04-30 19:44 | 52.45426 | 4.67694 | 9460 ft | 302 kts | 294° |
| 2026-04-30 19:44 | 52.46176 | 4.64459 | 10513 ft | 304 kts | 284° |
| 2026-04-30 19:45 | 52.46592 | 4.61028 | 11315 ft | 315 kts | 273° |
| 2026-04-30 19:45 | 52.46507 | 4.57345 | 11769 ft | 333 kts | 255° |
| 2026-04-30 19:45 | 52.45651 | 4.53806 | 12516 ft | 337 kts | 234° |
| 2026-04-30 19:45 | 52.44181 | 4.50820 | 13101 ft | 338 kts | 223° |
| 2026-04-30 19:46 | 52.42597 | 4.47945 | 13283 ft | 340 kts | 225° |
| 2026-04-30 19:46 | 52.41151 | 4.44864 | 13479 ft | 346 kts | 234° |
| 2026-04-30 19:46 | 52.39922 | 4.41446 | 14424 ft | 350 kts | 237° |
| 2026-04-30 19:46 | 52.38722 | 4.37965 | 15276 ft | 353 kts | 237° |
| 2026-04-30 19:47 | 52.37542 | 4.34425 | 16111 ft | 356 kts | 238° |
| 2026-04-30 19:47 | 52.36766 | 4.32057 | 16661 ft | 359 kts | 239° |
| 2026-04-30 19:47 | 52.35189 | 4.27202 | 17747 ft | 363 kts | 239° |
| 2026-04-30 19:47 | 52.34062 | 4.23737 | 18528 ft | 367 kts | 239° |
| 2026-04-30 19:48 | 52.32837 | 4.19975 | 19234 ft | 370 kts | 239° |
| 2026-04-30 19:48 | 52.31602 | 4.16272 | 19923 ft | 373 kts | 236° |
| 2026-04-30 19:48 | 52.30095 | 4.12810 | 20594 ft | 375 kts | 229° |
| 2026-04-30 19:48 | 52.28483 | 4.09429 | 21280 ft | 378 kts | 229° |
| 2026-04-30 19:49 | 52.26858 | 4.06038 | 21952 ft | 382 kts | 229° |
| 2026-04-30 19:49 | 52.23570 | 3.99182 | 23241 ft | 389 kts | 229° |
| 2026-04-30 19:49 | 52.21892 | 3.95680 | 23863 ft | 393 kts | 229° |
| 2026-04-30 19:50 | 52.20203 | 3.92154 | 24194 ft | 396 kts | 229° |
| 2026-04-30 19:50 | 52.18478 | 3.88564 | 24289 ft | 410 kts | 229° |
| 2026-04-30 19:50 | 52.16682 | 3.84839 | 24301 ft | 428 kts | 229° |
| 2026-04-30 19:50 | 52.14803 | 3.80945 | 24300 ft | 442 kts | 230° |
| 2026-04-30 19:51 | 52.12888 | 3.76980 | 24298 ft | 448 kts | 230° |
| 2026-04-30 19:51 | 52.10959 | 3.72986 | 24296 ft | 450 kts | 230° |
| 2026-04-30 19:51 | 52.09023 | 3.68982 | 24293 ft | 450 kts | 230° |
| 2026-04-30 19:51 | 52.07091 | 3.64992 | 24292 ft | 450 kts | 229° |
| 2026-04-30 19:52 | 52.05150 | 3.60996 | 24294 ft | 450 kts | 229° |
| 2026-04-30 19:52 | 52.03208 | 3.57009 | 24289 ft | 450 kts | 229° |
| 2026-04-30 19:52 | 52.01364 | 3.52927 | 24287 ft | 452 kts | 236° |
| 2026-04-30 19:52 | 51.99947 | 3.48335 | 24284 ft | 455 kts | 247° |
| 2026-04-30 19:53 | 51.99060 | 3.43394 | 24288 ft | 458 kts | 257° |
| 2026-04-30 19:53 | 51.98584 | 3.38290 | 24285 ft | 459 kts | 260° |
| 2026-04-30 19:53 | 51.98129 | 3.33173 | 24283 ft | 458 kts | 259° |
| 2026-04-30 19:53 | 51.97644 | 3.28062 | 24283 ft | 458 kts | 259° |
| 2026-04-30 19:54 | 51.97141 | 3.22962 | 24282 ft | 458 kts | 259° |
| 2026-04-30 19:54 | 51.96636 | 3.17851 | 24282 ft | 458 kts | 259° |
| 2026-04-30 19:54 | 51.96181 | 3.12742 | 24282 ft | 459 kts | 261° |
| 2026-04-30 19:54 | 51.95806 | 3.07545 | 24278 ft | 470 kts | 262° |
| 2026-04-30 19:55 | 51.95486 | 3.02284 | 24278 ft | 467 kts | 263° |
| 2026-04-30 19:55 | 51.95191 | 2.97042 | 24277 ft | 466 kts | 263° |
| 2026-04-30 19:55 | 51.94895 | 2.91821 | 24277 ft | 465 kts | 263° |
| 2026-04-30 19:55 | 51.94580 | 2.86612 | 24273 ft | 465 kts | 262° |
| 2026-04-30 19:56 | 51.94244 | 2.81392 | 24276 ft | 465 kts | 262° |
| 2026-04-30 19:56 | 51.93898 | 2.76248 | 24274 ft | 465 kts | 262° |
| 2026-04-30 19:56 | 51.93531 | 2.70978 | 24270 ft | 465 kts | 262° |
| 2026-04-30 19:56 | 51.93169 | 2.65843 | 24267 ft | 465 kts | 262° |
| 2026-04-30 19:57 | 51.92805 | 2.60645 | 24269 ft | 465 kts | 262° |
| 2026-04-30 19:57 | 51.92444 | 2.55437 | 24272 ft | 465 kts | 262° |
| 2026-04-30 19:57 | 51.92084 | 2.50231 | 24267 ft | 465 kts | 262° |
| 2026-04-30 19:57 | 51.91725 | 2.45038 | 24265 ft | 465 kts | 262° |
| 2026-04-30 19:58 | 51.91362 | 2.39836 | 24268 ft | 465 kts | 262° |
| 2026-04-30 19:58 | 51.90995 | 2.34639 | 24264 ft | 464 kts | 262° |
| 2026-04-30 19:58 | 51.90670 | 2.29427 | 24262 ft | 465 kts | 263° |
| 2026-04-30 19:58 | 51.90468 | 2.24202 | 24260 ft | 465 kts | 265° |
| 2026-04-30 19:59 | 51.90359 | 2.18974 | 24259 ft | 466 kts | 267° |
| 2026-04-30 19:59 | 51.90296 | 2.13727 | 24264 ft | 464 kts | 267° |
| 2026-04-30 19:59 | 51.90173 | 2.03672 | 23026 ft | 435 kts | 266° |
| 2026-04-30 20:00 | 51.90076 | 1.98824 | 21841 ft | 425 kts | 265° |
| 2026-04-30 20:00 | 51.90103 | 1.94097 | 20705 ft | 417 kts | 274° |
| 2026-04-30 20:00 | 51.90661 | 1.89535 | 19607 ft | 412 kts | 285° |
| 2026-04-30 20:00 | 51.91791 | 1.85314 | 18790 ft | 403 kts | 298° |
| 2026-04-30 20:01 | 51.95216 | 1.78173 | 18291 ft | 401 kts | 309° |
| 2026-04-30 20:01 | 51.96999 | 1.74710 | 18092 ft | 395 kts | 308° |
| 2026-04-30 20:01 | 51.98732 | 1.71321 | 17914 ft | 388 kts | 308° |
| 2026-04-30 20:02 | 52.02161 | 1.64609 | 17549 ft | 384 kts | 308° |
| 2026-04-30 20:02 | 52.03847 | 1.61316 | 17370 ft | 383 kts | 308° |
| 2026-04-30 20:03 | 52.07248 | 1.54681 | 17011 ft | 381 kts | 309° |
| 2026-04-30 20:03 | 52.08944 | 1.51378 | 16831 ft | 380 kts | 309° |
| 2026-04-30 20:03 | 52.10637 | 1.48071 | 16654 ft | 379 kts | 309° |
| 2026-04-30 20:03 | 52.12320 | 1.44775 | 16476 ft | 379 kts | 309° |
| 2026-04-30 20:04 | 52.13991 | 1.41460 | 16302 ft | 377 kts | 306° |
| 2026-04-30 20:04 | 52.15371 | 1.37858 | 16122 ft | 375 kts | 295° |
| 2026-04-30 20:04 | 52.16315 | 1.33918 | 15951 ft | 372 kts | 284° |
| 2026-04-30 20:05 | 52.17133 | 1.25646 | 15605 ft | 369 kts | 275° |
| 2026-04-30 20:05 | 52.17458 | 1.21506 | 15432 ft | 368 kts | 275° |
| 2026-04-30 20:05 | 52.18115 | 1.13246 | 14966 ft | 366 kts | 275° |
| 2026-04-30 20:06 | 52.18440 | 1.09136 | 14725 ft | 365 kts | 275° |
| 2026-04-30 20:06 | 52.18761 | 1.05034 | 14489 ft | 364 kts | 275° |
| 2026-04-30 20:06 | 52.19079 | 1.00944 | 14257 ft | 363 kts | 275° |
| 2026-04-30 20:06 | 52.19289 | 0.98249 | 14103 ft | 362 kts | 275° |
| 2026-04-30 20:07 | 52.19603 | 0.94180 | 13847 ft | 361 kts | 275° |
| 2026-04-30 20:07 | 52.19913 | 0.90122 | 13584 ft | 360 kts | 275° |
| 2026-04-30 20:07 | 52.20222 | 0.82053 | 13067 ft | 355 kts | 266° |
| 2026-04-30 20:08 | 52.20196 | 0.78031 | 12813 ft | 354 kts | 266° |
| 2026-04-30 20:08 | 52.20168 | 0.74059 | 12561 ft | 353 kts | 266° |
| 2026-04-30 20:08 | 52.20143 | 0.70055 | 12308 ft | 352 kts | 266° |
| 2026-04-30 20:08 | 52.20118 | 0.66082 | 12055 ft | 350 kts | 266° |
| 2026-04-30 20:09 | 52.20093 | 0.62126 | 11806 ft | 349 kts | 266° |
| 2026-04-30 20:09 | 52.20070 | 0.58171 | 11559 ft | 348 kts | 266° |
| 2026-04-30 20:09 | 52.20026 | 0.50304 | 11070 ft | 346 kts | 266° |
| 2026-04-30 20:10 | 52.19960 | 0.42675 | 10589 ft | 327 kts | 261° |
| 2026-04-30 20:10 | 52.19637 | 0.39044 | 10349 ft | 323 kts | 257° |
| 2026-04-30 20:10 | 52.19257 | 0.35450 | 10115 ft | 321 kts | 256° |
| 2026-04-30 20:11 | 52.18426 | 0.28353 | 9593 ft | 315 kts | 252° |
| 2026-04-30 20:11 | 52.17882 | 0.24931 | 9335 ft | 310 kts | 251° |
| 2026-04-30 20:11 | 52.17330 | 0.21554 | 9079 ft | 307 kts | 250° |
| 2026-04-30 20:12 | 52.15968 | 0.15027 | 8566 ft | 303 kts | 246° |
| 2026-04-30 20:12 | 52.15250 | 0.11790 | 8334 ft | 302 kts | 246° |
| 2026-04-30 20:12 | 52.14539 | 0.08582 | 8110 ft | 301 kts | 246° |
| 2026-04-30 20:13 | 52.13829 | 0.05386 | 7861 ft | 300 kts | 246° |
| 2026-04-30 20:13 | 52.13118 | 0.02192 | 7616 ft | 299 kts | 246° |
| 2026-04-30 20:13 | 52.12412 | -0.00986 | 7365 ft | 298 kts | 246° |
| 2026-04-30 20:13 | 52.11704 | -0.04156 | 7133 ft | 298 kts | 246° |
| 2026-04-30 20:14 | 52.10996 | -0.07313 | 6889 ft | 296 kts | 246° |
| 2026-04-30 20:14 | 52.10288 | -0.10455 | 6642 ft | 296 kts | 246° |
| 2026-04-30 20:14 | 52.09580 | -0.13586 | 6394 ft | 294 kts | 246° |
| 2026-04-30 20:14 | 52.08874 | -0.16698 | 6131 ft | 292 kts | 246° |
| 2026-04-30 20:15 | 52.08171 | -0.19784 | 5879 ft | 290 kts | 246° |
| 2026-04-30 20:15 | 52.07374 | -0.22712 | 5629 ft | 284 kts | 235° |
| 2026-04-30 20:15 | 52.06276 | -0.25357 | 5385 ft | 281 kts | 231° |
| 2026-04-30 20:15 | 52.05141 | -0.27941 | 5133 ft | 280 kts | 231° |
| 2026-04-30 20:16 | 52.04019 | -0.30483 | 4884 ft | 272 kts | 231° |
| 2026-04-30 20:16 | 52.02943 | -0.32926 | 4627 ft | 261 kts | 230° |
| 2026-04-30 20:16 | 52.01692 | -0.34919 | 4370 ft | 247 kts | 213° |
| 2026-04-30 20:16 | 52.00309 | -0.36529 | 4123 ft | 242 kts | 211° |
| 2026-04-30 20:17 | 51.98971 | -0.38070 | 3990 ft | 230 kts | 211° |
| 2026-04-30 20:17 | 51.97683 | -0.39568 | 3740 ft | 226 kts | 211° |
| 2026-04-30 20:17 | 51.96415 | -0.41065 | 3436 ft | 225 kts | 211° |
| 2026-04-30 20:17 | 51.95170 | -0.42541 | 3213 ft | 217 kts | 208° |
| 2026-04-30 20:18 | 51.93891 | -0.43716 | 3078 ft | 207 kts | 201° |
| 2026-04-30 20:18 | 51.92617 | -0.44776 | 2812 ft | 207 kts | 200° |
| 2026-04-30 20:18 | 51.91321 | -0.45862 | 2433 ft | 212 kts | 200° |
| 2026-04-30 20:18 | 51.90008 | -0.46995 | 2048 ft | 216 kts | 201° |
| 2026-04-30 20:19 | 51.88637 | -0.47919 | 1666 ft | 211 kts | 185° |
| 2026-04-30 20:19 | 51.87231 | -0.48188 | 1533 ft | 193 kts | 178° |
| 2026-04-30 20:19 | 51.86051 | -0.47741 | 1510 ft | 164 kts | 136° |
| 2026-04-30 20:19 | 51.85676 | -0.46171 | 1509 ft | 151 kts | 82° |
| 2026-04-30 20:20 | 51.86110 | -0.44700 | 1395 ft | 139 kts | 71° |
| 2026-04-30 20:20 | 51.86351 | -0.43311 | 1204 ft | 124 kts | 78° |
| 2026-04-30 20:20 | 51.86584 | -0.42002 | 1015 ft | 117 kts | 77° |
| 2026-04-30 20:20 | 51.86795 | -0.40739 | 846 ft | 116 kts | 76° |
| 2026-04-30 20:21 | 51.87014 | -0.39502 | 688 ft | 111 kts | 78° |
| 2026-04-30 20:21 | 51.87217 | -0.38286 | 543 ft | 106 kts | 76° |
| 2026-04-30 20:21 | 51.87372 | -0.37365 | 522 ft | 48 kts | 74° |
| 2026-04-30 20:21 | 51.87433 | -0.37024 | 523 ft | 18 kts | 73° |
| 2026-04-30 20:22 | 51.87515 | -0.36932 | 523 ft | 10 kts | 337° |
| 2026-04-30 20:22 | 51.87569 | -0.36972 | 524 ft | 8 kts | 329° |
| 2026-04-30 20:22 | 51.87603 | -0.37061 | 522 ft | 12 kts | 284° |
| 2026-04-30 20:22 | 51.87587 | -0.37227 | 522 ft | 16 kts | 253° |
| 2026-04-30 20:23 | 51.87586 | -0.37400 | 522 ft | 15 kts | 292° |
| 2026-04-30 20:23 | 51.87659 | -0.37489 | 522 ft | 14 kts | 331° |
| 2026-04-30 20:23 | 51.87713 | -0.37621 | 519 ft | 15 kts | 295° |
| 2026-04-30 20:23 | 51.87750 | -0.37749 | 524 ft | 11 kts | 295° |
| 2026-04-30 20:24 | 51.87782 | -0.37858 | 524 ft | 10 kts | 295° |
| 2026-04-30 20:24 | 51.87794 | -0.37899 | 524 ft | 0 kts | 297° |
| 2026-04-30 20:24 | 51.87799 | -0.37914 | 524 ft | 4 kts | 298° |
| 2026-04-30 20:25 | 51.87882 | -0.37962 | 524 ft | 9 kts | 65° |
| 2026-04-30 20:25 | 51.87889 | -0.37921 | 524 ft | 0 kts | 74° |
| 2026-04-30 20:26 | 51.87888 | -0.37924 | 524 ft | 0 kts | 74° |